weather.gov     
National Weather Service

Terminal Aerodrome Forecast
NWS Homepage
This page is being discontinued on March 12, 2014.
The same data is available at this site. Please update your bookmarks.
Thank you, and we apologize for the inconvenience.
Please send an email to SR-SRH.Webmaster@noaa.gov with any concerns.


Current Version
Previous Version:    01  02  03  04  05  06  07  08  09  10  11  12  13  14  15  16  17  18  19  20  21  22  23  
[Printable]
820
FTUS44 KOUN 172340
TAFSPS
TAF
KSPS 172340Z 1800/1824 07008KT 5SM -RA SCT008 OVC014
      TEMPO 1801/1803 BKN008
     FM180300 07006KT P6SM OVC008
     FM181300 15008KT P6SM OVC012
     FM181600 16009KT P6SM SCT035=




820
FTUS44 KOUN 172340
TAFSPS
TAF
KSPS 172340Z 1800/1824 07008KT 5SM -RA SCT008 OVC014
      TEMPO 1801/1803 BKN008
     FM180300 07006KT P6SM OVC008
     FM181300 15008KT P6SM OVC012
     FM181600 16009KT P6SM SCT035=


U.S. Dept. of Commerce
NOAA National Weather Service
1325 East West Highway
Silver Spring, MD 20910
E-mail: w-nws.webmaster@noaa.gov
Page last modified: May 16, 2007
NATIONAL WEATHER SERVICE: for Safety, for Work, for Fun - FOR LIFE